sensor_id;sensor_type;location;lat;lon;timestamp;temperature;humidity
67559;DHT22;54388;53.536;49.300;2023-04-01T00:01:13;9.00;62.90
67559;DHT22;54388;53.536;49.300;2023-04-01T00:03:40;9.00;63.30
67559;DHT22;54388;53.536;49.300;2023-04-01T00:06:07;8.90;63.40
67559;DHT22;54388;53.536;49.300;2023-04-01T00:08:33;8.90;64.00
67559;DHT22;54388;53.536;49.300;2023-04-01T00:11:00;8.90;64.40
67559;DHT22;54388;53.536;49.300;2023-04-01T00:13:26;8.90;65.10
67559;DHT22;54388;53.536;49.300;2023-04-01T00:15:54;8.80;65.30
67559;DHT22;54388;53.536;49.300;2023-04-01T00:18:21;8.80;65.70
67559;DHT22;54388;53.536;49.300;2023-04-01T00:20:49;8.80;66.20
67559;DHT22;54388;53.536;49.300;2023-04-01T00:23:17;8.80;66.60
67559;DHT22;54388;53.536;49.300;2023-04-01T00:25:44;8.80;66.80
67559;DHT22;54388;53.536;49.300;2023-04-01T00:28:15;8.80;67.00
67559;DHT22;54388;53.536;49.300;2023-04-01T00:30:41;8.80;67.40
67559;DHT22;54388;53.536;49.300;2023-04-01T00:33:08;8.80;67.50
67559;DHT22;54388;53.536;49.300;2023-04-01T00:35:35;8.70;67.90
67559;DHT22;54388;53.536;49.300;2023-04-01T00:38:01;8.70;68.10
67559;DHT22;54388;53.536;49.300;2023-04-01T00:40:38;8.70;68.60
67559;DHT22;54388;53.536;49.300;2023-04-01T00:43:19;8.60;69.00
67559;DHT22;54388;53.536;49.300;2023-04-01T00:45:48;8.60;69.20
67559;DHT22;54388;53.536;49.300;2023-04-01T00:48:17;8.60;69.30
67559;DHT22;54388;53.536;49.300;2023-04-01T00:53:41;8.60;70.50
67559;DHT22;54388;53.536;49.300;2023-04-01T00:56:18;8.60;70.50
67559;DHT22;54388;53.536;49.300;2023-04-01T00:58:51;8.60;70.70
67559;DHT22;54388;53.536;49.300;2023-04-01T01:01:21;8.60;70.80
67559;DHT22;54388;53.536;49.300;2023-04-01T01:03:48;8.50;71.00
67559;DHT22;54388;53.536;49.300;2023-04-01T01:06:25;8.50;71.10
67559;DHT22;54388;53.536;49.300;2023-04-01T01:09:05;8.50;71.40
67559;DHT22;54388;53.536;49.300;2023-04-01T01:11:52;8.50;72.00
67559;DHT22;54388;53.536;49.300;2023-04-01T01:14:48;8.40;72.40
67559;DHT22;54388;53.536;49.300;2023-04-01T01:26:09;8.30;73.60
67559;DHT22;54388;53.536;49.300;2023-04-01T01:29:07;8.30;74.00
67559;DHT22;54388;53.536;49.300;2023-04-01T01:32:20;8.30;74.40
67559;DHT22;54388;53.536;49.300;2023-04-01T01:37:10;8.20;74.60
67559;DHT22;54388;53.536;49.300;2023-04-01T01:39:41;8.20;75.00
67559;DHT22;54388;53.536;49.300;2023-04-01T01:42:11;8.20;75.10
67559;DHT22;54388;53.536;49.300;2023-04-01T01:44:40;8.20;75.00
67559;DHT22;54388;53.536;49.300;2023-04-01T01:47:09;8.20;75.90
67559;DHT22;54388;53.536;49.300;2023-04-01T01:49:37;8.20;75.00
67559;DHT22;54388;53.536;49.300;2023-04-01T01:52:05;8.20;74.80
67559;DHT22;54388;53.536;49.300;2023-04-01T01:54:32;8.10;74.50
67559;DHT22;54388;53.536;49.300;2023-04-01T01:57:07;8.10;74.60
67559;DHT22;54388;53.536;49.300;2023-04-01T01:59:38;8.10;74.90
67559;DHT22;54388;53.536;49.300;2023-04-01T02:02:06;8.10;74.90
67559;DHT22;54388;53.536;49.300;2023-04-01T02:04:40;8.10;75.10
67559;DHT22;54388;53.536;49.300;2023-04-01T02:07:13;8.00;75.40
67559;DHT22;54388;53.536;49.300;2023-04-01T02:09:42;8.00;75.30
67559;DHT22;54388;53.536;49.300;2023-04-01T02:12:11;8.00;75.70
67559;DHT22;54388;53.536;49.300;2023-04-01T02:17:18;8.00;76.60
67559;DHT22;54388;53.536;49.300;2023-04-01T02:19:52;8.00;76.70
67559;DHT22;54388;53.536;49.300;2023-04-01T02:22:26;8.00;76.70
67559;DHT22;54388;53.536;49.300;2023-04-01T02:24:58;8.00;76.90
67559;DHT22;54388;53.536;49.300;2023-04-01T02:27:26;8.00;77.00
67559;DHT22;54388;53.536;49.300;2023-04-01T02:29:53;7.90;76.90
67559;DHT22;54388;53.536;49.300;2023-04-01T02:32:20;7.90;77.10
67559;DHT22;54388;53.536;49.300;2023-04-01T02:34:48;7.90;77.70
67559;DHT22;54388;53.536;49.300;2023-04-01T02:37:15;7.90;78.10
67559;DHT22;54388;53.536;49.300;2023-04-01T02:39:42;7.90;78.40
67559;DHT22;54388;53.536;49.300;2023-04-01T02:42:09;7.90;78.70
67559;DHT22;54388;53.536;49.300;2023-04-01T02:44:37;7.90;79.10
67559;DHT22;54388;53.536;49.300;2023-04-01T02:47:04;7.90;79.20
67559;DHT22;54388;53.536;49.300;2023-04-01T02:49:31;7.90;80.40
67559;DHT22;54388;53.536;49.300;2023-04-01T02:51:58;7.90;80.00
67559;DHT22;54388;53.536;49.300;2023-04-01T02:54:24;7.90;80.10
67559;DHT22;54388;53.536;49.300;2023-04-01T02:56:51;7.90;80.30
67559;DHT22;54388;53.536;49.300;2023-04-01T02:59:17;7.90;80.20
67559;DHT22;54388;53.536;49.300;2023-04-01T03:01:44;7.90;80.10
67559;DHT22;54388;53.536;49.300;2023-04-01T03:04:10;7.90;80.30
67559;DHT22;54388;53.536;49.300;2023-04-01T03:06:37;7.90;80.40
67559;DHT22;54388;53.536;49.300;2023-04-01T03:09:03;7.90;80.90
67559;DHT22;54388;53.536;49.300;2023-04-01T03:11:30;8.00;81.10
67559;DHT22;54388;53.536;49.300;2023-04-01T03:13:56;8.10;81.00
67559;DHT22;54388;53.536;49.300;2023-04-01T03:16:23;8.20;80.50
67559;DHT22;54388;53.536;49.300;2023-04-01T03:18:50;8.30;79.40
67559;DHT22;54388;53.536;49.300;2023-04-01T03:21:21;8.40;77.90
67559;DHT22;54388;53.536;49.300;2023-04-01T03:23:48;8.50;76.20
67559;DHT22;54388;53.536;49.300;2023-04-01T03:26:15;8.60;74.70
67559;DHT22;54388;53.536;49.300;2023-04-01T03:28:42;8.70;73.20
67559;DHT22;54388;53.536;49.300;2023-04-01T03:31:09;8.80;71.30
67559;DHT22;54388;53.536;49.300;2023-04-01T03:33:36;8.90;70.00
67559;DHT22;54388;53.536;49.300;2023-04-01T03:36:03;9.00;68.60
67559;DHT22;54388;53.536;49.300;2023-04-01T03:38:33;9.00;67.30
67559;DHT22;54388;53.536;49.300;2023-04-01T03:41:00;9.10;66.20
67559;DHT22;54388;53.536;49.300;2023-04-01T03:43:27;9.20;65.30
67559;DHT22;54388;53.536;49.300;2023-04-01T03:45:53;9.40;63.80
67559;DHT22;54388;53.536;49.300;2023-04-01T03:48:21;9.50;62.20
67559;DHT22;54388;53.536;49.300;2023-04-01T03:50:48;9.60;61.00
67559;DHT22;54388;53.536;49.300;2023-04-01T03:53:14;9.70;60.30
67559;DHT22;54388;53.536;49.300;2023-04-01T03:55:41;9.80;59.40
67559;DHT22;54388;53.536;49.300;2023-04-01T03:58:08;9.80;58.50
67559;DHT22;54388;53.536;49.300;2023-04-01T04:00:34;9.90;58.20
67559;DHT22;54388;53.536;49.300;2023-04-01T04:03:01;10.00;57.40
67559;DHT22;54388;53.536;49.300;2023-04-01T04:05:28;10.10;56.70
67559;DHT22;54388;53.536;49.300;2023-04-01T04:07:55;10.20;56.40
67559;DHT22;54388;53.536;49.300;2023-04-01T04:10:22;10.30;56.00
67559;DHT22;54388;53.536;49.300;2023-04-01T04:12:49;10.40;55.30
67559;DHT22;54388;53.536;49.300;2023-04-01T04:15:16;10.50;54.80
67559;DHT22;54388;53.536;49.300;2023-04-01T04:17:44;10.70;54.60
67559;DHT22;54388;53.536;49.300;2023-04-01T04:20:11;10.80;54.00
67559;DHT22;54388;53.536;49.300;2023-04-01T04:22:37;11.00;53.70
67559;DHT22;54388;53.536;49.300;2023-04-01T04:25:05;11.10;53.20
67559;DHT22;54388;53.536;49.300;2023-04-01T04:27:31;11.30;52.00
67559;DHT22;54388;53.536;49.300;2023-04-01T04:29:59;11.50;51.80
67559;DHT22;54388;53.536;49.300;2023-04-01T04:32:25;11.70;51.10
67559;DHT22;54388;53.536;49.300;2023-04-01T04:34:52;11.80;50.40
67559;DHT22;54388;53.536;49.300;2023-04-01T04:37:18;12.00;49.90
67559;DHT22;54388;53.536;49.300;2023-04-01T04:39:45;12.10;49.40
67559;DHT22;54388;53.536;49.300;2023-04-01T04:42:12;12.30;48.40
67559;DHT22;54388;53.536;49.300;2023-04-01T04:44:39;12.50;47.60
67559;DHT22;54388;53.536;49.300;2023-04-01T04:47:06;12.60;47.20
67559;DHT22;54388;53.536;49.300;2023-04-01T04:49:33;12.90;46.50
67559;DHT22;54388;53.536;49.300;2023-04-01T04:52:00;13.20;45.80
67559;DHT22;54388;53.536;49.300;2023-04-01T04:54:26;13.40;45.40
67559;DHT22;54388;53.536;49.300;2023-04-01T04:56:53;13.70;44.50
67559;DHT22;54388;53.536;49.300;2023-04-01T04:59:20;14.00;43.60
67559;DHT22;54388;53.536;49.300;2023-04-01T05:01:47;14.30;42.80
67559;DHT22;54388;53.536;49.300;2023-04-01T05:04:13;14.50;42.00
67559;DHT22;54388;53.536;49.300;2023-04-01T05:06:42;14.70;41.30
67559;DHT22;54388;53.536;49.300;2023-04-01T05:09:08;14.90;40.40
67559;DHT22;54388;53.536;49.300;2023-04-01T05:11:34;15.20;40.10
67559;DHT22;54388;53.536;49.300;2023-04-01T05:14:01;15.40;39.30
67559;DHT22;54388;53.536;49.300;2023-04-01T05:16:28;15.60;39.00
67559;DHT22;54388;53.536;49.300;2023-04-01T05:18:54;15.80;38.40
67559;DHT22;54388;53.536;49.300;2023-04-01T05:21:21;16.00;37.50
67559;DHT22;54388;53.536;49.300;2023-04-01T05:23:47;16.10;37.20
67559;DHT22;54388;53.536;49.300;2023-04-01T05:26:14;16.30;37.20
67559;DHT22;54388;53.536;49.300;2023-04-01T05:28:41;16.40;38.00
67559;DHT22;54388;53.536;49.300;2023-04-01T05:31:09;16.60;36.60
67559;DHT22;54388;53.536;49.300;2023-04-01T05:33:36;16.70;36.60
67559;DHT22;54388;53.536;49.300;2023-04-01T05:36:16;16.80;36.30
67559;DHT22;54388;53.536;49.300;2023-04-01T05:38:43;16.90;36.00
67559;DHT22;54388;53.536;49.300;2023-04-01T05:41:12;17.00;35.60
67559;DHT22;54388;53.536;49.300;2023-04-01T05:43:40;17.20;35.70
67559;DHT22;54388;53.536;49.300;2023-04-01T05:46:06;17.40;35.70
67559;DHT22;54388;53.536;49.300;2023-04-01T05:48:34;17.50;35.30
67559;DHT22;54388;53.536;49.300;2023-04-01T05:51:04;17.70;35.10
67559;DHT22;54388;53.536;49.300;2023-04-01T05:53:32;17.90;34.60
67559;DHT22;54388;53.536;49.300;2023-04-01T05:56:02;18.20;34.40
67559;DHT22;54388;53.536;49.300;2023-04-01T05:58:30;18.60;33.80
67559;DHT22;54388;53.536;49.300;2023-04-01T06:01:02;18.90;33.40
67559;DHT22;54388;53.536;49.300;2023-04-01T06:03:29;19.30;32.70
67559;DHT22;54388;53.536;49.300;2023-04-01T06:05:56;19.60;32.60
67559;DHT22;54388;53.536;49.300;2023-04-01T06:08:24;19.80;32.10
67559;DHT22;54388;53.536;49.300;2023-04-01T06:13:46;20.30;30.90
67559;DHT22;54388;53.536;49.300;2023-04-01T06:16:32;20.70;30.10
67559;DHT22;54388;53.536;49.300;2023-04-01T06:30:47;22.10;27.50
67559;DHT22;54388;53.536;49.300;2023-04-01T06:36:40;22.50;26.70
67559;DHT22;54388;53.536;49.300;2023-04-01T06:45:38;23.00;26.20
67559;DHT22;54388;53.536;49.300;2023-04-01T06:48:19;23.20;26.00
67559;DHT22;54388;53.536;49.300;2023-04-01T06:54:07;23.30;26.50
67559;DHT22;54388;53.536;49.300;2023-04-01T06:56:26;23.40;25.80
67559;DHT22;54388;53.536;49.300;2023-04-01T06:59:10;23.60;25.80
67559;DHT22;54388;53.536;49.300;2023-04-01T07:01:51;23.80;25.70
67559;DHT22;54388;53.536;49.300;2023-04-01T07:06:58;24.30;25.20
67559;DHT22;54388;53.536;49.300;2023-04-01T07:09:31;24.50;24.80
67559;DHT22;54388;53.536;49.300;2023-04-01T07:12:02;24.60;24.40
67559;DHT22;54388;53.536;49.300;2023-04-01T07:14:40;24.80;24.20
67559;DHT22;54388;53.536;49.300;2023-04-01T07:17:30;25.10;24.00
67559;DHT22;54388;53.536;49.300;2023-04-01T07:20:11;25.20;23.70
67559;DHT22;54388;53.536;49.300;2023-04-01T07:22:46;25.20;23.70
67559;DHT22;54388;53.536;49.300;2023-04-01T07:25:15;25.30;23.60
67559;DHT22;54388;53.536;49.300;2023-04-01T07:27:43;25.40;23.50
67559;DHT22;54388;53.536;49.300;2023-04-01T07:30:16;25.50;23.20
67559;DHT22;54388;53.536;49.300;2023-04-01T07:32:56;25.60;23.00
67559;DHT22;54388;53.536;49.300;2023-04-01T07:35:52;25.70;23.00
67559;DHT22;54388;53.536;49.300;2023-04-01T07:41:15;25.90;22.80
67559;DHT22;54388;53.536;49.300;2023-04-01T07:43:54;26.00;22.70
67559;DHT22;54388;53.536;49.300;2023-04-01T07:46:42;26.00;22.60
67559;DHT22;54388;53.536;49.300;2023-04-01T07:49:42;26.00;22.60
67559;DHT22;54388;53.536;49.300;2023-04-01T07:52:31;26.10;22.30
67559;DHT22;54388;53.536;49.300;2023-04-01T07:55:16;26.30;22.40
67559;DHT22;54388;53.536;49.300;2023-04-01T08:00:24;26.50;22.30
67559;DHT22;54388;53.536;49.300;2023-04-01T08:03:24;26.60;22.40
67559;DHT22;54388;53.536;49.300;2023-04-01T08:08:57;26.80;22.10
67559;DHT22;54388;53.536;49.300;2023-04-01T08:20:17;27.10;21.70
67559;DHT22;54388;53.536;49.300;2023-04-01T08:22:51;27.10;21.60
67559;DHT22;54388;53.536;49.300;2023-04-01T08:25:21;27.20;21.70
67559;DHT22;54388;53.536;49.300;2023-04-01T08:33:31;27.50;21.50
67559;DHT22;54388;53.536;49.300;2023-04-01T08:36:17;27.50;21.50
67559;DHT22;54388;53.536;49.300;2023-04-01T08:44:17;27.50;21.40
67559;DHT22;54388;53.536;49.300;2023-04-01T08:50:31;27.60;21.30
67559;DHT22;54388;53.536;49.300;2023-04-01T08:56:47;27.70;20.70
67559;DHT22;54388;53.536;49.300;2023-04-01T09:00:22;27.70;20.70
67559;DHT22;54388;53.536;49.300;2023-04-01T09:05:26;27.80;21.00
67559;DHT22;54388;53.536;49.300;2023-04-01T09:08:19;27.80;20.70
67559;DHT22;54388;53.536;49.300;2023-04-01T09:16:28;27.80;20.70
67559;DHT22;54388;53.536;49.300;2023-04-01T09:21:52;27.70;20.60
67559;DHT22;54388;53.536;49.300;2023-04-01T09:24:48;27.70;20.60
67559;DHT22;54388;53.536;49.300;2023-04-01T09:33:17;27.80;20.70
67559;DHT22;54388;53.536;49.300;2023-04-01T09:44:58;27.70;20.60
67559;DHT22;54388;53.536;49.300;2023-04-01T09:47:40;27.60;20.60
67559;DHT22;54388;53.536;49.300;2023-04-01T09:58:33;27.80;20.60
67559;DHT22;54388;53.536;49.300;2023-04-01T10:20:43;27.00;20.30
67559;DHT22;54388;53.536;49.300;2023-04-01T10:28:53;26.30;20.50
67559;DHT22;54388;53.536;49.300;2023-04-01T10:31:47;26.00;20.50
67559;DHT22;54388;53.536;49.300;2023-04-01T10:49:28;25.10;21.30
67559;DHT22;54388;53.536;49.300;2023-04-01T10:58:03;25.10;21.30
67559;DHT22;54388;53.536;49.300;2023-04-01T11:00:55;25.10;21.30
67559;DHT22;54388;53.536;49.300;2023-04-01T11:20:59;24.90;21.10
67559;DHT22;54388;53.536;49.300;2023-04-01T11:29:56;24.80;21.30
67559;DHT22;54388;53.536;49.300;2023-04-01T11:32:49;24.80;21.40
67559;DHT22;54388;53.536;49.300;2023-04-01T11:44:18;24.80;21.60
67559;DHT22;54388;53.536;49.300;2023-04-01T11:56:02;24.70;21.70
67559;DHT22;54388;53.536;49.300;2023-04-01T12:04:27;24.50;22.00
67559;DHT22;54388;53.536;49.300;2023-04-01T12:18:18;24.90;22.00
67559;DHT22;54388;53.536;49.300;2023-04-01T12:21:03;24.90;21.90
67559;DHT22;54388;53.536;49.300;2023-04-01T12:45:54;24.90;22.50
67559;DHT22;54388;53.536;49.300;2023-04-01T12:48:47;24.90;22.50
67559;DHT22;54388;53.536;49.300;2023-04-01T12:52:09;25.00;22.60
67559;DHT22;54388;53.536;49.300;2023-04-01T12:54:48;25.00;22.50
67559;DHT22;54388;53.536;49.300;2023-04-01T12:57:51;25.10;22.50
67559;DHT22;54388;53.536;49.300;2023-04-01T13:03:52;25.30;22.40
67559;DHT22;54388;53.536;49.300;2023-04-01T13:07:07;25.50;22.40
67559;DHT22;54388;53.536;49.300;2023-04-01T13:21:28;25.80;22.00
67559;DHT22;54388;53.536;49.300;2023-04-01T13:24:23;25.80;22.00
67559;DHT22;54388;53.536;49.300;2023-04-01T13:26:58;25.80;22.00
67559;DHT22;54388;53.536;49.300;2023-04-01T13:43:34;25.70;22.00
67559;DHT22;54388;53.536;49.300;2023-04-01T13:48:57;25.60;22.10
67559;DHT22;54388;53.536;49.300;2023-04-01T13:54:41;25.50;22.10
67559;DHT22;54388;53.536;49.300;2023-04-01T13:57:34;25.40;22.10
67559;DHT22;54388;53.536;49.300;2023-04-01T14:28:36;24.30;22.50
67559;DHT22;54388;53.536;49.300;2023-04-01T14:31:43;24.20;22.70
67559;DHT22;54388;53.536;49.300;2023-04-01T14:40:05;23.80;22.90
67559;DHT22;54388;53.536;49.300;2023-04-01T14:43:25;23.70;22.90
67559;DHT22;54388;53.536;49.300;2023-04-01T14:48:38;23.40;23.10
67559;DHT22;54388;53.536;49.300;2023-04-01T14:51:32;23.30;23.20
67559;DHT22;54388;53.536;49.300;2023-04-01T14:56:48;23.00;23.40
67559;DHT22;54388;53.536;49.300;2023-04-01T15:05:15;22.50;23.90
67559;DHT22;54388;53.536;49.300;2023-04-01T15:10:30;22.10;24.20
67559;DHT22;54388;53.536;49.300;2023-04-01T15:13:13;21.80;24.40
67559;DHT22;54388;53.536;49.300;2023-04-01T15:24:07;20.80;25.40
67559;DHT22;54388;53.536;49.300;2023-04-01T15:29:52;20.30;25.90
67559;DHT22;54388;53.536;49.300;2023-04-01T15:32:29;20.00;26.10
67559;DHT22;54388;53.536;49.300;2023-04-01T15:35:40;19.90;26.20
67559;DHT22;54388;53.536;49.300;2023-04-01T15:38:26;19.70;26.40
67559;DHT22;54388;53.536;49.300;2023-04-01T15:41:16;19.50;26.70
67559;DHT22;54388;53.536;49.300;2023-04-01T15:43:51;19.30;27.00
67559;DHT22;54388;53.536;49.300;2023-04-01T15:46:44;19.10;27.20
67559;DHT22;54388;53.536;49.300;2023-04-01T15:57:25;18.30;28.00
67559;DHT22;54388;53.536;49.300;2023-04-01T16:02:34;18.10;28.50
67559;DHT22;54388;53.536;49.300;2023-04-01T16:08:17;17.80;28.50
67559;DHT22;54388;53.536;49.300;2023-04-01T16:23:02;17.10;29.70
67559;DHT22;54388;53.536;49.300;2023-04-01T16:31:59;16.70;30.20
67559;DHT22;54388;53.536;49.300;2023-04-01T16:39:49;16.40;30.80
67559;DHT22;54388;53.536;49.300;2023-04-01T16:42:52;16.30;31.00
67559;DHT22;54388;53.536;49.300;2023-04-01T16:45:23;16.20;31.20
67559;DHT22;54388;53.536;49.300;2023-04-01T16:48:14;16.20;31.20
67559;DHT22;54388;53.536;49.300;2023-04-01T16:54:05;16.00;31.50
67559;DHT22;54388;53.536;49.300;2023-04-01T16:56:44;15.90;31.90
67559;DHT22;54388;53.536;49.300;2023-04-01T16:59:20;15.80;31.90
67559;DHT22;54388;53.536;49.300;2023-04-01T17:01:53;15.80;32.10
67559;DHT22;54388;53.536;49.300;2023-04-01T17:15:43;15.50;32.90
67559;DHT22;54388;53.536;49.300;2023-04-01T17:18:34;15.50;33.10
67559;DHT22;54388;53.536;49.300;2023-04-01T17:35:54;15.10;34.00
67559;DHT22;54388;53.536;49.300;2023-04-01T17:38:47;15.10;34.10
67559;DHT22;54388;53.536;49.300;2023-04-01T17:52:21;14.90;34.90
67559;DHT22;54388;53.536;49.300;2023-04-01T17:58:09;14.90;35.40
67559;DHT22;54388;53.536;49.300;2023-04-01T18:08:49;14.80;35.90
67559;DHT22;54388;53.536;49.300;2023-04-01T18:14:45;14.70;36.30
67559;DHT22;54388;53.536;49.300;2023-04-01T18:25:47;14.60;36.70
67559;DHT22;54388;53.536;49.300;2023-04-01T18:33:41;14.60;37.10
67559;DHT22;54388;53.536;49.300;2023-04-01T18:36:44;14.60;37.10
67559;DHT22;54388;53.536;49.300;2023-04-01T18:42:03;14.50;37.10
67559;DHT22;54388;53.536;49.300;2023-04-01T18:44:52;14.50;37.20
67559;DHT22;54388;53.536;49.300;2023-04-01T18:53:29;14.40;37.30
67559;DHT22;54388;53.536;49.300;2023-04-01T18:56:12;14.30;37.60
67559;DHT22;54388;53.536;49.300;2023-04-01T18:59:02;14.30;37.70
67559;DHT22;54388;53.536;49.300;2023-04-01T19:06:57;14.10;38.10
67559;DHT22;54388;53.536;49.300;2023-04-01T19:09:29;14.10;38.20
67559;DHT22;54388;53.536;49.300;2023-04-01T19:17:58;13.90;38.50
67559;DHT22;54388;53.536;49.300;2023-04-01T19:23:53;13.80;38.70
67559;DHT22;54388;53.536;49.300;2023-04-01T19:35:23;13.60;39.50
67559;DHT22;54388;53.536;49.300;2023-04-01T19:40:56;13.50;39.80
67559;DHT22;54388;53.536;49.300;2023-04-01T19:46:28;13.40;40.00
67559;DHT22;54388;53.536;49.300;2023-04-01T19:57:09;13.20;40.60
67559;DHT22;54388;53.536;49.300;2023-04-01T20:02:38;13.10;40.70
67559;DHT22;54388;53.536;49.300;2023-04-01T20:05:25;13.10;41.00
67559;DHT22;54388;53.536;49.300;2023-04-01T20:08:07;13.10;41.10
67559;DHT22;54388;53.536;49.300;2023-04-01T20:16:16;13.00;41.50
67559;DHT22;54388;53.536;49.300;2023-04-01T20:18:56;12.90;41.70
67559;DHT22;54388;53.536;49.300;2023-04-01T20:21:34;12.90;41.60
67559;DHT22;54388;53.536;49.300;2023-04-01T20:26:53;12.80;42.10
67559;DHT22;54388;53.536;49.300;2023-04-01T20:29:46;12.80;42.00
67559;DHT22;54388;53.536;49.300;2023-04-01T20:40:39;12.60;42.40
67559;DHT22;54388;53.536;49.300;2023-04-01T20:43:23;12.60;42.40
67559;DHT22;54388;53.536;49.300;2023-04-01T20:46:07;12.60;42.60
67559;DHT22;54388;53.536;49.300;2023-04-01T20:51:46;12.50;42.80
67559;DHT22;54388;53.536;49.300;2023-04-01T20:56:56;12.40;42.80
67559;DHT22;54388;53.536;49.300;2023-04-01T20:59:45;12.40;43.00
67559;DHT22;54388;53.536;49.300;2023-04-01T21:02:21;12.30;43.10
67559;DHT22;54388;53.536;49.300;2023-04-01T21:11:01;12.30;43.10
67559;DHT22;54388;53.536;49.300;2023-04-01T21:14:01;12.20;43.30
67559;DHT22;54388;53.536;49.300;2023-04-01T21:16:47;12.20;43.30
67559;DHT22;54388;53.536;49.300;2023-04-01T21:30:17;12.10;43.20
67559;DHT22;54388;53.536;49.300;2023-04-01T21:40:56;12.00;42.60
67559;DHT22;54388;53.536;49.300;2023-04-01T21:46:22;12.00;42.50
67559;DHT22;54388;53.536;49.300;2023-04-01T21:51:56;12.00;42.20
67559;DHT22;54388;53.536;49.300;2023-04-01T22:02:57;12.00;42.10
67559;DHT22;54388;53.536;49.300;2023-04-01T22:05:53;12.00;41.90
67559;DHT22;54388;53.536;49.300;2023-04-01T22:17:27;12.00;41.80
67559;DHT22;54388;53.536;49.300;2023-04-01T22:26:14;11.90;41.60
67559;DHT22;54388;53.536;49.300;2023-04-01T22:30:52;11.90;41.60
67559;DHT22;54388;53.536;49.300;2023-04-01T22:47:02;11.90;41.60
67559;DHT22;54388;53.536;49.300;2023-04-01T22:49:32;11.90;41.60
67559;DHT22;54388;53.536;49.300;2023-04-01T22:54:56;11.90;41.60
67559;DHT22;54388;53.536;49.300;2023-04-01T22:57:40;11.90;41.60
67559;DHT22;54388;53.536;49.300;2023-04-01T23:00:28;11.90;41.60
67559;DHT22;54388;53.536;49.300;2023-04-01T23:03:17;11.90;41.60
67559;DHT22;54388;53.536;49.300;2023-04-01T23:05:53;11.90;41.60
67559;DHT22;54388;53.536;49.300;2023-04-01T23:11:32;11.90;41.60
67559;DHT22;54388;53.536;49.300;2023-04-01T23:25:55;11.90;41.80
67559;DHT22;54388;53.536;49.300;2023-04-01T23:28:43;11.90;41.70
67559;DHT22;54388;53.536;49.300;2023-04-01T23:31:29;11.90;41.90
67559;DHT22;54388;53.536;49.300;2023-04-01T23:33:59;11.80;41.90
67559;DHT22;54388;53.536;49.300;2023-04-01T23:36:27;11.90;41.90
67559;DHT22;54388;53.536;49.300;2023-04-01T23:38:54;11.80;41.90
67559;DHT22;54388;53.536;49.300;2023-04-01T23:41:27;11.80;42.00
67559;DHT22;54388;53.536;49.300;2023-04-01T23:44:10;11.80;42.00
67559;DHT22;54388;53.536;49.300;2023-04-01T23:46:39;11.80;42.10
67559;DHT22;54388;53.536;49.300;2023-04-01T23:49:23;11.80;42.00
67559;DHT22;54388;53.536;49.300;2023-04-01T23:52:02;11.90;42.00
67559;DHT22;54388;53.536;49.300;2023-04-01T23:55:31;11.90;42.10
67559;DHT22;54388;53.536;49.300;2023-04-01T23:57:38;11.90;42.10
